• °C
  • Pobieranie danych...
wx


SEKCJA WYDRUKÓW, pokaż »

METAR EPBY 271300Z VRB01KT 5000 BR OVC007 03/01 Q0995=

METAR EPGD 271300Z 31006KT 7000 -RA BKN004 OVC005 02/01 Q0994 =

METAR EPKK 271300Z 24004KT 210V270 9999 BKN060 05/M01 Q0996 =

METAR EPKT 271300Z 20007KT CAVOK 02/M01 Q0995 =

METAR EPLB 271300Z 25013KT 9999 SCT018 BKN021 03/02 Q0997 =

METAR EPLL 271300Z 22005KT 180V240 7000 OVC004 00/M01 Q0996 =

METAR EPML 271300Z AUTO 24005KT 210V270 9999 FEW083/// 05/M00 Q0997=

METAR EPMO 271300Z 22011KT 5000 BR OVC005 01/01 Q0995 =

METAR EPPO 271300Z 11007KT 5000 BR BKN006 02/00 Q0995 =

METAR EPRA 271300Z NIL=

METAR EPRZ 271300Z 20003KT 9999 OVC020 04/01 Q0997 =

METAR EPSC 271300Z 09008KT CAVOK 03/01 Q0993 =

METAR EPSY 271300Z 29003KT 240V320 8000 -RA BKN006 OVC009 01/01
Q0993=

METAR EPWA 271300Z 25008KT 9999 FEW010 BKN023 02/01 Q0995 TEMPO
BKN012=

METAR EPWR 271300Z 15009KT CAVOK 03/M01 Q0994 =

METAR EPZG 271300Z 14003KT 110V170 CAVOK 04/01 Q0994 =
 METAR EPBY
Lokalizacja:EPBY Bydgoszcz
Czas:13:00 UTC
Średni kierunek wiatru:zmienny
Średnia prędkość wiatru:1 węzłów
Widzialność:5000 metrów
Zjawisko:zamglenie
Pierwsza warstwa chmur:8/8, wysokość podstawy 700 FT
Temperatura powietrza:3 °C
Temperatura punktu rosy:1 °C
Ciśnienie QNH:995 hPa



Serwisy IMGW-PIB